sensor_id;sensor_type;location;lat;lon;timestamp;temperature;humidity
66035;HTU21D;52805;51.074;5.842;2023-02-04T00:01:57;9.50;84.55
66035;HTU21D;52805;51.074;5.842;2023-02-04T00:04:23;9.52;84.55
66035;HTU21D;52805;51.074;5.842;2023-02-04T00:06:49;9.47;84.38
66035;HTU21D;52805;51.074;5.842;2023-02-04T00:09:14;9.39;84.60
66035;HTU21D;52805;51.074;5.842;2023-02-04T00:11:41;9.38;84.60
66035;HTU21D;52805;51.074;5.842;2023-02-04T00:14:07;9.39;84.73
66035;HTU21D;52805;51.074;5.842;2023-02-04T00:16:32;9.39;84.58
66035;HTU21D;52805;51.074;5.842;2023-02-04T00:18:58;9.37;84.71
66035;HTU21D;52805;51.074;5.842;2023-02-04T00:21:24;9.36;84.66
66035;HTU21D;52805;51.074;5.842;2023-02-04T00:23:49;9.35;84.71
66035;HTU21D;52805;51.074;5.842;2023-02-04T00:26:16;9.36;84.55
66035;HTU21D;52805;51.074;5.842;2023-02-04T00:28:41;9.37;84.25
66035;HTU21D;52805;51.074;5.842;2023-02-04T00:31:07;9.34;84.50
66035;HTU21D;52805;51.074;5.842;2023-02-04T00:33:33;9.36;84.38
66035;HTU21D;52805;51.074;5.842;2023-02-04T00:35:58;9.37;84.40
66035;HTU21D;52805;51.074;5.842;2023-02-04T00:38:24;9.38;84.35
66035;HTU21D;52805;51.074;5.842;2023-02-04T00:40:50;9.37;84.37
66035;HTU21D;52805;51.074;5.842;2023-02-04T00:43:17;9.34;84.47
66035;HTU21D;52805;51.074;5.842;2023-02-04T00:45:42;9.35;84.50
66035;HTU21D;52805;51.074;5.842;2023-02-04T00:48:09;9.38;84.34
66035;HTU21D;52805;51.074;5.842;2023-02-04T00:50:35;9.37;84.47
66035;HTU21D;52805;51.074;5.842;2023-02-04T00:53:05;9.41;84.37
66035;HTU21D;52805;51.074;5.842;2023-02-04T00:55:31;9.45;84.30
66035;HTU21D;52805;51.074;5.842;2023-02-04T00:57:57;9.48;84.19
66035;HTU21D;52805;51.074;5.842;2023-02-04T01:00:23;9.48;84.08
66035;HTU21D;52805;51.074;5.842;2023-02-04T01:02:48;9.47;84.12
66035;HTU21D;52805;51.074;5.842;2023-02-04T01:05:14;9.48;84.07
66035;HTU21D;52805;51.074;5.842;2023-02-04T01:07:40;9.50;84.03
66035;HTU21D;52805;51.074;5.842;2023-02-04T01:10:06;9.50;84.02
66035;HTU21D;52805;51.074;5.842;2023-02-04T01:12:32;9.54;83.89
66035;HTU21D;52805;51.074;5.842;2023-02-04T01:14:58;9.56;83.81
66035;HTU21D;52805;51.074;5.842;2023-02-04T01:17:24;9.56;83.81
66035;HTU21D;52805;51.074;5.842;2023-02-04T01:19:52;9.56;83.81
66035;HTU21D;52805;51.074;5.842;2023-02-04T01:22:19;9.57;83.71
66035;HTU21D;52805;51.074;5.842;2023-02-04T01:24:45;9.60;83.62
66035;HTU21D;52805;51.074;5.842;2023-02-04T01:27:30;9.59;83.56
66035;HTU21D;52805;51.074;5.842;2023-02-04T01:29:55;9.60;83.55
66035;HTU21D;52805;51.074;5.842;2023-02-04T01:32:21;9.61;83.45
66035;HTU21D;52805;51.074;5.842;2023-02-04T01:34:47;9.57;83.52
66035;HTU21D;52805;51.074;5.842;2023-02-04T01:37:12;9.60;83.55
66035;HTU21D;52805;51.074;5.842;2023-02-04T01:39:40;9.60;83.55
66035;HTU21D;52805;51.074;5.842;2023-02-04T01:42:06;9.59;83.62
66035;HTU21D;52805;51.074;5.842;2023-02-04T01:44:32;9.57;83.58
66035;HTU21D;52805;51.074;5.842;2023-02-04T01:46:58;9.56;83.44
66035;HTU21D;52805;51.074;5.842;2023-02-04T01:49:25;9.61;83.20
66035;HTU21D;52805;51.074;5.842;2023-02-04T01:51:51;9.59;83.19
66035;HTU21D;52805;51.074;5.842;2023-02-04T01:54:17;9.61;83.23
66035;HTU21D;52805;51.074;5.842;2023-02-04T01:56:45;9.62;83.07
66035;HTU21D;52805;51.074;5.842;2023-02-04T01:59:13;9.61;83.14
66035;HTU21D;52805;51.074;5.842;2023-02-04T02:01:40;9.60;83.23
66035;HTU21D;52805;51.074;5.842;2023-02-04T02:04:08;9.62;83.26
66035;HTU21D;52805;51.074;5.842;2023-02-04T02:06:37;9.64;83.29
66035;HTU21D;52805;51.074;5.842;2023-02-04T02:09:04;9.64;83.23
66035;HTU21D;52805;51.074;5.842;2023-02-04T02:11:31;9.66;83.19
66035;HTU21D;52805;51.074;5.842;2023-02-04T02:13:59;9.64;83.14
66035;HTU21D;52805;51.074;5.842;2023-02-04T02:16:25;9.63;83.20
66035;HTU21D;52805;51.074;5.842;2023-02-04T02:18:51;9.62;83.23
66035;HTU21D;52805;51.074;5.842;2023-02-04T02:21:37;9.62;83.28
66035;HTU21D;52805;51.074;5.842;2023-02-04T02:24:23;9.60;83.23
66035;HTU21D;52805;51.074;5.842;2023-02-04T02:26:54;9.56;83.24
66035;HTU21D;52805;51.074;5.842;2023-02-04T02:29:22;9.54;83.29
66035;HTU21D;52805;51.074;5.842;2023-02-04T02:31:49;9.51;83.31
66035;HTU21D;52805;51.074;5.842;2023-02-04T02:34:15;9.49;83.32
66035;HTU21D;52805;51.074;5.842;2023-02-04T02:36:41;9.48;83.32
66035;HTU21D;52805;51.074;5.842;2023-02-04T02:39:08;9.47;83.28
66035;HTU21D;52805;51.074;5.842;2023-02-04T02:41:34;9.46;83.27
66035;HTU21D;52805;51.074;5.842;2023-02-04T02:44:00;9.44;83.27
66035;HTU21D;52805;51.074;5.842;2023-02-04T02:46:27;9.41;83.39
66035;HTU21D;52805;51.074;5.842;2023-02-04T02:48:53;9.35;83.42
66035;HTU21D;52805;51.074;5.842;2023-02-04T02:51:19;9.25;83.59
66035;HTU21D;52805;51.074;5.842;2023-02-04T02:53:48;9.19;83.78
66035;HTU21D;52805;51.074;5.842;2023-02-04T02:56:14;9.14;83.85
66035;HTU21D;52805;51.074;5.842;2023-02-04T02:58:40;9.10;83.96
66035;HTU21D;52805;51.074;5.842;2023-02-04T03:01:08;9.06;83.98
66035;HTU21D;52805;51.074;5.842;2023-02-04T03:03:42;9.02;84.03
66035;HTU21D;52805;51.074;5.842;2023-02-04T03:06:13;9.01;84.09
66035;HTU21D;52805;51.074;5.842;2023-02-04T03:08:42;8.97;84.14
66035;HTU21D;52805;51.074;5.842;2023-02-04T03:11:09;8.94;84.07
66035;HTU21D;52805;51.074;5.842;2023-02-04T03:13:36;8.92;83.85
66035;HTU21D;52805;51.074;5.842;2023-02-04T03:16:03;8.88;83.73
66035;HTU21D;52805;51.074;5.842;2023-02-04T03:18:30;8.85;83.58
66035;HTU21D;52805;51.074;5.842;2023-02-04T03:20:57;8.82;83.29
66035;HTU21D;52805;51.074;5.842;2023-02-04T03:23:24;8.80;83.18
66035;HTU21D;52805;51.074;5.842;2023-02-04T03:25:52;8.78;83.24
66035;HTU21D;52805;51.074;5.842;2023-02-04T03:28:18;8.79;83.26
66035;HTU21D;52805;51.074;5.842;2023-02-04T03:30:44;8.79;83.25
66035;HTU21D;52805;51.074;5.842;2023-02-04T03:33:25;8.81;83.19
66035;HTU21D;52805;51.074;5.842;2023-02-04T03:35:52;8.83;82.97
66035;HTU21D;52805;51.074;5.842;2023-02-04T03:38:18;8.86;82.94
66035;HTU21D;52805;51.074;5.842;2023-02-04T03:40:45;8.89;82.99
66035;HTU21D;52805;51.074;5.842;2023-02-04T03:43:10;8.90;83.01
66035;HTU21D;52805;51.074;5.842;2023-02-04T03:45:36;8.93;83.04
66035;HTU21D;52805;51.074;5.842;2023-02-04T03:48:02;8.94;83.09
66035;HTU21D;52805;51.074;5.842;2023-02-04T03:50:28;8.95;83.08
66035;HTU21D;52805;51.074;5.842;2023-02-04T03:52:54;8.95;83.13
66035;HTU21D;52805;51.074;5.842;2023-02-04T03:55:19;8.95;83.12
66035;HTU21D;52805;51.074;5.842;2023-02-04T03:57:45;8.95;83.20
66035;HTU21D;52805;51.074;5.842;2023-02-04T04:00:12;8.96;83.29
66035;HTU21D;52805;51.074;5.842;2023-02-04T04:02:39;8.97;83.31
66035;HTU21D;52805;51.074;5.842;2023-02-04T04:05:06;8.94;83.41
66035;HTU21D;52805;51.074;5.842;2023-02-04T04:07:32;8.97;83.44
66035;HTU21D;52805;51.074;5.842;2023-02-04T04:09:58;8.98;83.49
66035;HTU21D;52805;51.074;5.842;2023-02-04T04:12:23;9.01;83.47
66035;HTU21D;52805;51.074;5.842;2023-02-04T04:14:49;9.01;83.49
66035;HTU21D;52805;51.074;5.842;2023-02-04T04:17:15;9.04;83.52
66035;HTU21D;52805;51.074;5.842;2023-02-04T04:19:41;9.04;83.52
66035;HTU21D;52805;51.074;5.842;2023-02-04T04:22:09;9.06;83.52
66035;HTU21D;52805;51.074;5.842;2023-02-04T04:24:35;9.10;83.58
66035;HTU21D;52805;51.074;5.842;2023-02-04T04:27:00;9.11;83.63
66035;HTU21D;52805;51.074;5.842;2023-02-04T04:29:26;9.12;83.65
66035;HTU21D;52805;51.074;5.842;2023-02-04T04:31:52;9.15;83.64
66035;HTU21D;52805;51.074;5.842;2023-02-04T04:34:17;9.16;83.67
66035;HTU21D;52805;51.074;5.842;2023-02-04T04:36:43;9.17;83.76
66035;HTU21D;52805;51.074;5.842;2023-02-04T04:39:09;9.18;83.76
66035;HTU21D;52805;51.074;5.842;2023-02-04T04:41:34;9.20;83.80
66035;HTU21D;52805;51.074;5.842;2023-02-04T04:44:00;9.20;83.84
66035;HTU21D;52805;51.074;5.842;2023-02-04T04:46:26;9.20;83.83
66035;HTU21D;52805;51.074;5.842;2023-02-04T04:48:51;9.23;83.75
66035;HTU21D;52805;51.074;5.842;2023-02-04T04:51:17;9.21;83.87
66035;HTU21D;52805;51.074;5.842;2023-02-04T04:53:43;9.20;83.97
66035;HTU21D;52805;51.074;5.842;2023-02-04T04:56:08;9.19;84.03
66035;HTU21D;52805;51.074;5.842;2023-02-04T04:58:34;9.20;84.13
66035;HTU21D;52805;51.074;5.842;2023-02-04T05:01:00;9.17;84.13
66035;HTU21D;52805;51.074;5.842;2023-02-04T05:03:25;9.17;84.14
66035;HTU21D;52805;51.074;5.842;2023-02-04T05:05:51;9.14;84.23
66035;HTU21D;52805;51.074;5.842;2023-02-04T05:08:17;9.14;84.32
66035;HTU21D;52805;51.074;5.842;2023-02-04T05:10:45;9.12;84.29
66035;HTU21D;52805;51.074;5.842;2023-02-04T05:13:11;9.11;84.34
66035;HTU21D;52805;51.074;5.842;2023-02-04T05:15:37;9.10;84.40
66035;HTU21D;52805;51.074;5.842;2023-02-04T05:18:03;9.09;84.42
66035;HTU21D;52805;51.074;5.842;2023-02-04T05:20:29;9.08;84.39
66035;HTU21D;52805;51.074;5.842;2023-02-04T05:22:55;9.09;84.36
66035;HTU21D;52805;51.074;5.842;2023-02-04T05:25:23;9.08;84.39
66035;HTU21D;52805;51.074;5.842;2023-02-04T05:27:50;9.08;84.36
66035;HTU21D;52805;51.074;5.842;2023-02-04T05:30:15;9.06;84.35
66035;HTU21D;52805;51.074;5.842;2023-02-04T05:32:41;9.06;84.27
66035;HTU21D;52805;51.074;5.842;2023-02-04T05:35:07;9.05;84.26
66035;HTU21D;52805;51.074;5.842;2023-02-04T05:37:33;9.04;84.33
66035;HTU21D;52805;51.074;5.842;2023-02-04T05:39:58;9.04;84.45
66035;HTU21D;52805;51.074;5.842;2023-02-04T05:42:24;9.05;84.28
66035;HTU21D;52805;51.074;5.842;2023-02-04T05:44:50;9.06;84.25
66035;HTU21D;52805;51.074;5.842;2023-02-04T05:47:15;9.06;84.26
66035;HTU21D;52805;51.074;5.842;2023-02-04T05:49:41;9.06;84.23
66035;HTU21D;52805;51.074;5.842;2023-02-04T05:52:07;9.06;84.26
66035;HTU21D;52805;51.074;5.842;2023-02-04T05:54:32;9.06;84.23
66035;HTU21D;52805;51.074;5.842;2023-02-04T05:56:58;9.07;84.22
66035;HTU21D;52805;51.074;5.842;2023-02-04T05:59:24;9.07;84.21
66035;HTU21D;52805;51.074;5.842;2023-02-04T06:01:50;9.07;84.32
66035;HTU21D;52805;51.074;5.842;2023-02-04T06:04:16;9.05;84.39
66035;HTU21D;52805;51.074;5.842;2023-02-04T06:06:42;9.06;84.41
66035;HTU21D;52805;51.074;5.842;2023-02-04T06:09:09;9.06;84.42
66035;HTU21D;52805;51.074;5.842;2023-02-04T06:11:36;9.08;84.39
66035;HTU21D;52805;51.074;5.842;2023-02-04T06:14:02;9.07;84.36
66035;HTU21D;52805;51.074;5.842;2023-02-04T06:16:28;9.09;84.39
66035;HTU21D;52805;51.074;5.842;2023-02-04T06:18:53;9.08;84.35
66035;HTU21D;52805;51.074;5.842;2023-02-04T06:21:19;9.07;84.30
66035;HTU21D;52805;51.074;5.842;2023-02-04T06:23:45;9.08;84.33
66035;HTU21D;52805;51.074;5.842;2023-02-04T06:26:11;9.07;84.31
66035;HTU21D;52805;51.074;5.842;2023-02-04T06:28:37;9.07;84.34
66035;HTU21D;52805;51.074;5.842;2023-02-04T06:31:03;9.07;84.38
66035;HTU21D;52805;51.074;5.842;2023-02-04T06:33:29;9.06;84.47
66035;HTU21D;52805;51.074;5.842;2023-02-04T06:35:54;9.04;84.47
66035;HTU21D;52805;51.074;5.842;2023-02-04T06:38:20;9.05;84.44
66035;HTU21D;52805;51.074;5.842;2023-02-04T06:40:46;9.03;84.46
66035;HTU21D;52805;51.074;5.842;2023-02-04T06:43:18;9.02;84.41
66035;HTU21D;52805;51.074;5.842;2023-02-04T06:45:44;9.01;84.32
66035;HTU21D;52805;51.074;5.842;2023-02-04T06:48:10;9.00;84.29
66035;HTU21D;52805;51.074;5.842;2023-02-04T06:50:35;9.00;84.26
66035;HTU21D;52805;51.074;5.842;2023-02-04T06:53:01;8.97;84.19
66035;HTU21D;52805;51.074;5.842;2023-02-04T06:55:27;8.97;84.13
66035;HTU21D;52805;51.074;5.842;2023-02-04T06:57:52;8.98;84.08
66035;HTU21D;52805;51.074;5.842;2023-02-04T07:00:18;8.98;84.09
66035;HTU21D;52805;51.074;5.842;2023-02-04T07:02:44;8.97;84.11
66035;HTU21D;52805;51.074;5.842;2023-02-04T07:05:10;8.97;84.10
66035;HTU21D;52805;51.074;5.842;2023-02-04T07:07:36;8.95;84.12
66035;HTU21D;52805;51.074;5.842;2023-02-04T07:10:03;8.94;83.99
66035;HTU21D;52805;51.074;5.842;2023-02-04T07:12:29;8.95;83.97
66035;HTU21D;52805;51.074;5.842;2023-02-04T07:14:54;8.94;83.95
66035;HTU21D;52805;51.074;5.842;2023-02-04T07:17:21;8.93;83.96
66035;HTU21D;52805;51.074;5.842;2023-02-04T07:19:47;8.93;84.03
66035;HTU21D;52805;51.074;5.842;2023-02-04T07:22:13;8.91;83.94
66035;HTU21D;52805;51.074;5.842;2023-02-04T07:24:39;8.92;83.96
66035;HTU21D;52805;51.074;5.842;2023-02-04T07:27:05;8.92;83.96
66035;HTU21D;52805;51.074;5.842;2023-02-04T07:29:30;8.93;83.90
66035;HTU21D;52805;51.074;5.842;2023-02-04T07:31:56;8.95;83.88
66035;HTU21D;52805;51.074;5.842;2023-02-04T07:34:22;8.95;83.87
66035;HTU21D;52805;51.074;5.842;2023-02-04T07:36:48;8.96;83.90
66035;HTU21D;52805;51.074;5.842;2023-02-04T07:39:14;8.98;83.84
66035;HTU21D;52805;51.074;5.842;2023-02-04T07:41:39;9.00;83.79
66035;HTU21D;52805;51.074;5.842;2023-02-04T07:44:05;8.98;83.85
66035;HTU21D;52805;51.074;5.842;2023-02-04T07:46:31;9.01;83.90
66035;HTU21D;52805;51.074;5.842;2023-02-04T07:48:56;9.03;83.81
66035;HTU21D;52805;51.074;5.842;2023-02-04T07:51:22;9.03;83.85
66035;HTU21D;52805;51.074;5.842;2023-02-04T07:53:48;9.02;83.89
66035;HTU21D;52805;51.074;5.842;2023-02-04T07:56:13;9.04;83.87
66035;HTU21D;52805;51.074;5.842;2023-02-04T07:58:39;9.05;83.80
66035;HTU21D;52805;51.074;5.842;2023-02-04T08:01:05;9.07;83.78
66035;HTU21D;52805;51.074;5.842;2023-02-04T08:03:30;9.08;83.69
66035;HTU21D;52805;51.074;5.842;2023-02-04T08:05:56;9.09;83.65
66035;HTU21D;52805;51.074;5.842;2023-02-04T08:08:22;9.11;83.61
66035;HTU21D;52805;51.074;5.842;2023-02-04T08:10:47;9.19;83.38
66035;HTU21D;52805;51.074;5.842;2023-02-04T08:13:13;9.18;83.36
66035;HTU21D;52805;51.074;5.842;2023-02-04T08:15:39;9.20;83.32
66035;HTU21D;52805;51.074;5.842;2023-02-04T08:18:05;9.21;83.35
66035;HTU21D;52805;51.074;5.842;2023-02-04T08:20:30;9.21;83.39
66035;HTU21D;52805;51.074;5.842;2023-02-04T08:22:56;9.26;83.36
66035;HTU21D;52805;51.074;5.842;2023-02-04T08:25:22;9.29;83.34
66035;HTU21D;52805;51.074;5.842;2023-02-04T08:27:48;9.30;83.40
66035;HTU21D;52805;51.074;5.842;2023-02-04T08:30:14;9.32;83.36
66035;HTU21D;52805;51.074;5.842;2023-02-04T08:32:40;9.34;83.39
66035;HTU21D;52805;51.074;5.842;2023-02-04T08:35:06;9.38;83.34
66035;HTU21D;52805;51.074;5.842;2023-02-04T08:37:32;9.40;83.29
66035;HTU21D;52805;51.074;5.842;2023-02-04T08:39:58;9.41;83.20
66035;HTU21D;52805;51.074;5.842;2023-02-04T08:42:24;9.44;83.11
66035;HTU21D;52805;51.074;5.842;2023-02-04T08:44:49;9.48;82.97
66035;HTU21D;52805;51.074;5.842;2023-02-04T08:47:16;9.50;82.97
66035;HTU21D;52805;51.074;5.842;2023-02-04T08:49:42;9.54;82.83
66035;HTU21D;52805;51.074;5.842;2023-02-04T08:52:08;9.56;82.78
66035;HTU21D;52805;51.074;5.842;2023-02-04T08:54:34;9.60;82.81
66035;HTU21D;52805;51.074;5.842;2023-02-04T08:57:01;9.63;82.78
66035;HTU21D;52805;51.074;5.842;2023-02-04T08:59:28;9.66;82.65
66035;HTU21D;52805;51.074;5.842;2023-02-04T09:01:53;9.66;82.63
66035;HTU21D;52805;51.074;5.842;2023-02-04T09:04:21;9.68;82.73
66035;HTU21D;52805;51.074;5.842;2023-02-04T09:06:48;9.70;82.79
66035;HTU21D;52805;51.074;5.842;2023-02-04T09:09:15;9.75;82.64
66035;HTU21D;52805;51.074;5.842;2023-02-04T09:11:42;9.78;82.56
66035;HTU21D;52805;51.074;5.842;2023-02-04T09:14:08;9.81;82.40
66035;HTU21D;52805;51.074;5.842;2023-02-04T09:16:34;9.85;82.26
66035;HTU21D;52805;51.074;5.842;2023-02-04T09:19:00;9.85;82.36
66035;HTU21D;52805;51.074;5.842;2023-02-04T09:21:28;9.86;82.39
66035;HTU21D;52805;51.074;5.842;2023-02-04T09:23:55;9.92;82.33
66035;HTU21D;52805;51.074;5.842;2023-02-04T09:26:22;9.95;82.37
66035;HTU21D;52805;51.074;5.842;2023-02-04T09:28:48;9.98;82.32
66035;HTU21D;52805;51.074;5.842;2023-02-04T09:31:14;10.03;82.17
66035;HTU21D;52805;51.074;5.842;2023-02-04T09:33:40;10.08;82.07
66035;HTU21D;52805;51.074;5.842;2023-02-04T09:36:07;10.12;81.92
66035;HTU21D;52805;51.074;5.842;2023-02-04T09:38:32;10.16;81.83
66035;HTU21D;52805;51.074;5.842;2023-02-04T09:41:05;10.23;81.87
66035;HTU21D;52805;51.074;5.842;2023-02-04T09:43:36;10.27;81.82
66035;HTU21D;52805;51.074;5.842;2023-02-04T09:46:04;10.29;81.78
66035;HTU21D;52805;51.074;5.842;2023-02-04T09:48:30;10.36;81.75
66035;HTU21D;52805;51.074;5.842;2023-02-04T09:51:06;10.37;81.73
66035;HTU21D;52805;51.074;5.842;2023-02-04T09:53:34;10.39;81.72
66035;HTU21D;52805;51.074;5.842;2023-02-04T09:56:00;10.41;81.62
66035;HTU21D;52805;51.074;5.842;2023-02-04T09:58:31;10.43;81.53
66035;HTU21D;52805;51.074;5.842;2023-02-04T10:01:08;10.44;81.46
66035;HTU21D;52805;51.074;5.842;2023-02-04T10:03:35;10.49;81.48
66035;HTU21D;52805;51.074;5.842;2023-02-04T10:06:01;10.53;81.25
66035;HTU21D;52805;51.074;5.842;2023-02-04T10:08:29;10.54;81.33
66035;HTU21D;52805;51.074;5.842;2023-02-04T10:10:55;10.62;81.25
66035;HTU21D;52805;51.074;5.842;2023-02-04T10:13:37;10.63;81.17
66035;HTU21D;52805;51.074;5.842;2023-02-04T10:16:13;10.66;81.23
66035;HTU21D;52805;51.074;5.842;2023-02-04T10:18:40;10.67;81.20
66035;HTU21D;52805;51.074;5.842;2023-02-04T10:21:27;10.69;81.20
66035;HTU21D;52805;51.074;5.842;2023-02-04T10:23:55;10.72;81.17
66035;HTU21D;52805;51.074;5.842;2023-02-04T10:26:25;10.77;80.98
66035;HTU21D;52805;51.074;5.842;2023-02-04T10:29:06;10.78;80.64
66035;HTU21D;52805;51.074;5.842;2023-02-04T10:34:20;10.79;80.65
66035;HTU21D;52805;51.074;5.842;2023-02-04T10:39:25;10.83;80.58
66035;HTU21D;52805;51.074;5.842;2023-02-04T10:41:57;10.84;80.43
66035;HTU21D;52805;51.074;5.842;2023-02-04T10:44:29;10.83;80.24
66035;HTU21D;52805;51.074;5.842;2023-02-04T10:47:03;10.86;80.22
66035;HTU21D;52805;51.074;5.842;2023-02-04T10:49:31;10.88;80.14
66035;HTU21D;52805;51.074;5.842;2023-02-04T10:51:57;10.97;79.85
66035;HTU21D;52805;51.074;5.842;2023-02-04T10:54:26;11.00;79.56
66035;HTU21D;52805;51.074;5.842;2023-02-04T10:57:10;11.04;79.35
66035;HTU21D;52805;51.074;5.842;2023-02-04T10:59:39;11.04;79.46
66035;HTU21D;52805;51.074;5.842;2023-02-04T11:02:32;11.04;79.30
66035;HTU21D;52805;51.074;5.842;2023-02-04T11:05:00;10.99;78.93
66035;HTU21D;52805;51.074;5.842;2023-02-04T11:07:26;11.00;78.72
66035;HTU21D;52805;51.074;5.842;2023-02-04T11:09:52;11.00;78.75
66035;HTU21D;52805;51.074;5.842;2023-02-04T11:12:34;11.01;78.70
66035;HTU21D;52805;51.074;5.842;2023-02-04T11:15:00;11.05;78.69
66035;HTU21D;52805;51.074;5.842;2023-02-04T11:17:31;11.12;78.43
66035;HTU21D;52805;51.074;5.842;2023-02-04T11:19:58;11.18;78.40
66035;HTU21D;52805;51.074;5.842;2023-02-04T11:22:43;11.29;78.25
66035;HTU21D;52805;51.074;5.842;2023-02-04T11:25:35;11.37;78.03
66035;HTU21D;52805;51.074;5.842;2023-02-04T11:28:24;11.39;77.73
66035;HTU21D;52805;51.074;5.842;2023-02-04T11:31:01;11.41;77.66
66035;HTU21D;52805;51.074;5.842;2023-02-04T11:33:39;11.48;77.76
66035;HTU21D;52805;51.074;5.842;2023-02-04T11:36:08;11.58;77.52
66035;HTU21D;52805;51.074;5.842;2023-02-04T11:38:34;11.67;77.42
66035;HTU21D;52805;51.074;5.842;2023-02-04T11:41:00;11.74;77.24
66035;HTU21D;52805;51.074;5.842;2023-02-04T11:43:27;11.77;76.95
66035;HTU21D;52805;51.074;5.842;2023-02-04T11:46:12;11.83;76.90
66035;HTU21D;52805;51.074;5.842;2023-02-04T11:48:40;11.89;76.53
66035;HTU21D;52805;51.074;5.842;2023-02-04T11:51:17;11.89;76.20
66035;HTU21D;52805;51.074;5.842;2023-02-04T11:53:50;11.85;76.21
66035;HTU21D;52805;51.074;5.842;2023-02-04T11:56:20;11.83;76.09
66035;HTU21D;52805;51.074;5.842;2023-02-04T11:58:47;11.77;76.16
66035;HTU21D;52805;51.074;5.842;2023-02-04T12:01:24;11.74;76.28
66035;HTU21D;52805;51.074;5.842;2023-02-04T12:03:56;11.70;76.15
66035;HTU21D;52805;51.074;5.842;2023-02-04T12:06:24;11.61;76.50
66035;HTU21D;52805;51.074;5.842;2023-02-04T12:08:50;11.57;76.69
66035;HTU21D;52805;51.074;5.842;2023-02-04T12:11:27;11.56;76.92
66035;HTU21D;52805;51.074;5.842;2023-02-04T12:14:05;11.58;77.06
66035;HTU21D;52805;51.074;5.842;2023-02-04T12:16:59;11.62;76.96
66035;HTU21D;52805;51.074;5.842;2023-02-04T12:19:26;11.67;77.12
66035;HTU21D;52805;51.074;5.842;2023-02-04T12:21:52;11.81;77.09
66035;HTU21D;52805;51.074;5.842;2023-02-04T12:24:17;11.93;76.79
66035;HTU21D;52805;51.074;5.842;2023-02-04T12:26:43;12.05;76.65
66035;HTU21D;52805;51.074;5.842;2023-02-04T12:29:09;12.06;76.56
66035;HTU21D;52805;51.074;5.842;2023-02-04T12:31:35;12.10;76.31
66035;HTU21D;52805;51.074;5.842;2023-02-04T12:34:01;12.04;75.99
66035;HTU21D;52805;51.074;5.842;2023-02-04T12:36:27;12.03;76.08
66035;HTU21D;52805;51.074;5.842;2023-02-04T12:38:55;12.07;76.05
66035;HTU21D;52805;51.074;5.842;2023-02-04T12:41:23;12.12;75.39
66035;HTU21D;52805;51.074;5.842;2023-02-04T12:43:49;12.17;74.69
66035;HTU21D;52805;51.074;5.842;2023-02-04T12:46:15;12.14;74.51
66035;HTU21D;52805;51.074;5.842;2023-02-04T12:48:41;12.21;74.41
66035;HTU21D;52805;51.074;5.842;2023-02-04T12:51:08;12.30;74.21
66035;HTU21D;52805;51.074;5.842;2023-02-04T12:53:34;12.40;73.99
66035;HTU21D;52805;51.074;5.842;2023-02-04T12:56:00;12.46;72.92
66035;HTU21D;52805;51.074;5.842;2023-02-04T12:58:25;12.46;73.22
66035;HTU21D;52805;51.074;5.842;2023-02-04T13:00:51;12.45;72.99
66035;HTU21D;52805;51.074;5.842;2023-02-04T13:03:17;12.46;73.03
66035;HTU21D;52805;51.074;5.842;2023-02-04T13:05:43;12.49;73.16
66035;HTU21D;52805;51.074;5.842;2023-02-04T13:08:09;12.56;73.13
66035;HTU21D;52805;51.074;5.842;2023-02-04T13:10:35;12.62;72.92
66035;HTU21D;52805;51.074;5.842;2023-02-04T13:13:00;12.62;72.70
66035;HTU21D;52805;51.074;5.842;2023-02-04T13:15:26;12.65;72.50
66035;HTU21D;52805;51.074;5.842;2023-02-04T13:17:52;12.65;72.13
66035;HTU21D;52805;51.074;5.842;2023-02-04T13:20:18;12.65;71.87
66035;HTU21D;52805;51.074;5.842;2023-02-04T13:22:44;12.67;71.55
66035;HTU21D;52805;51.074;5.842;2023-02-04T13:25:10;12.63;71.60
66035;HTU21D;52805;51.074;5.842;2023-02-04T13:27:37;12.61;71.37
66035;HTU21D;52805;51.074;5.842;2023-02-04T13:30:09;12.58;71.65
66035;HTU21D;52805;51.074;5.842;2023-02-04T13:32:35;12.59;71.67
66035;HTU21D;52805;51.074;5.842;2023-02-04T13:35:01;12.59;71.51
66035;HTU21D;52805;51.074;5.842;2023-02-04T13:37:26;12.58;71.30
66035;HTU21D;52805;51.074;5.842;2023-02-04T13:39:52;12.62;71.18
66035;HTU21D;52805;51.074;5.842;2023-02-04T13:42:18;12.69;70.86
66035;HTU21D;52805;51.074;5.842;2023-02-04T13:44:44;12.73;70.70
66035;HTU21D;52805;51.074;5.842;2023-02-04T13:47:09;12.71;70.26
66035;HTU21D;52805;51.074;5.842;2023-02-04T13:49:35;12.66;70.58
66035;HTU21D;52805;51.074;5.842;2023-02-04T13:52:01;12.70;70.65
66035;HTU21D;52805;51.074;5.842;2023-02-04T13:54:26;12.69;70.52
66035;HTU21D;52805;51.074;5.842;2023-02-04T13:56:52;12.71;70.52
66035;HTU21D;52805;51.074;5.842;2023-02-04T13:59:18;12.73;70.33
66035;HTU21D;52805;51.074;5.842;2023-02-04T14:01:43;12.71;70.32
66035;HTU21D;52805;51.074;5.842;2023-02-04T14:04:09;12.66;70.23
66035;HTU21D;52805;51.074;5.842;2023-02-04T14:06:35;12.60;70.45
66035;HTU21D;52805;51.074;5.842;2023-02-04T14:09:09;12.60;70.55
66035;HTU21D;52805;51.074;5.842;2023-02-04T14:11:35;12.58;70.59
66035;HTU21D;52805;51.074;5.842;2023-02-04T14:14:01;12.52;70.17
66035;HTU21D;52805;51.074;5.842;2023-02-04T14:16:27;12.52;70.74
66035;HTU21D;52805;51.074;5.842;2023-02-04T14:18:53;12.50;70.74
66035;HTU21D;52805;51.074;5.842;2023-02-04T14:21:18;12.48;70.73
66035;HTU21D;52805;51.074;5.842;2023-02-04T14:23:44;12.43;70.39
66035;HTU21D;52805;51.074;5.842;2023-02-04T14:26:10;12.38;70.56
66035;HTU21D;52805;51.074;5.842;2023-02-04T14:28:36;12.37;70.35
66035;HTU21D;52805;51.074;5.842;2023-02-04T14:31:02;12.38;70.43
66035;HTU21D;52805;51.074;5.842;2023-02-04T14:33:27;12.40;70.40
66035;HTU21D;52805;51.074;5.842;2023-02-04T14:35:53;12.42;70.32
66035;HTU21D;52805;51.074;5.842;2023-02-04T14:38:20;12.45;70.42
66035;HTU21D;52805;51.074;5.842;2023-02-04T14:40:49;12.49;70.40
66035;HTU21D;52805;51.074;5.842;2023-02-04T14:43:14;12.51;70.29
66035;HTU21D;52805;51.074;5.842;2023-02-04T14:45:40;12.55;70.13
66035;HTU21D;52805;51.074;5.842;2023-02-04T14:48:08;12.51;69.81
66035;HTU21D;52805;51.074;5.842;2023-02-04T14:50:33;12.51;69.89
66035;HTU21D;52805;51.074;5.842;2023-02-04T14:52:59;12.50;69.81
66035;HTU21D;52805;51.074;5.842;2023-02-04T14:55:26;12.48;69.94
66035;HTU21D;52805;51.074;5.842;2023-02-04T14:57:52;12.51;69.95
66035;HTU21D;52805;51.074;5.842;2023-02-04T15:00:19;12.51;69.98
66035;HTU21D;52805;51.074;5.842;2023-02-04T15:02:45;12.50;69.93
66035;HTU21D;52805;51.074;5.842;2023-02-04T15:05:12;12.49;69.77
66035;HTU21D;52805;51.074;5.842;2023-02-04T15:07:38;12.51;69.74
66035;HTU21D;52805;51.074;5.842;2023-02-04T15:10:04;12.51;69.67
66035;HTU21D;52805;51.074;5.842;2023-02-04T15:12:30;12.50;69.55
66035;HTU21D;52805;51.074;5.842;2023-02-04T15:14:55;12.51;69.57
66035;HTU21D;52805;51.074;5.842;2023-02-04T15:17:21;12.51;69.48
66035;HTU21D;52805;51.074;5.842;2023-02-04T15:19:47;12.52;69.44
66035;HTU21D;52805;51.074;5.842;2023-02-04T15:22:13;12.53;69.33
66035;HTU21D;52805;51.074;5.842;2023-02-04T15:24:39;12.53;69.56
66035;HTU21D;52805;51.074;5.842;2023-02-04T15:27:05;12.53;69.81
66035;HTU21D;52805;51.074;5.842;2023-02-04T15:29:31;12.55;69.61
66035;HTU21D;52805;51.074;5.842;2023-02-04T15:31:57;12.56;69.41